Time;durP1;ratioP1;P1;durP2;ratioP2;P2;SDS_P1;SDS_P2;PMS_P1;PMS_P2;Temp;Humidity;BMP_temperature;BMP_pressure;BME280_temperature;BME280_humidity;BME280_pressure;Samples;Min_cycle;Max_cycle;Signal;HPM_P1;HPM_P2
2023/01/07 00:00:48;;;;;;;2.10;1.90;;;16.10;67.40;17.00;100889.00;;;;4990830;28;20172;-45
2023/01/07 00:03:15;;;;;;;1.90;1.80;;;16.10;67.40;17.00;100951.00;;;;4955921;28;20569;-44
2023/01/07 00:05:42;;;;;;;3.17;2.00;;;16.20;67.50;17.00;100958.00;;;;4973056;28;20223;-45
2023/01/07 00:08:08;;;;;;;1.80;1.70;;;16.10;67.50;17.00;100877.00;;;;4972985;28;20172;-43
2023/01/07 00:10:34;;;;;;;1.93;1.77;;;16.10;67.40;17.00;100968.00;;;;4973379;28;20172;-46
2023/01/07 00:13:00;;;;;;;1.80;1.70;;;16.10;67.40;17.00;100955.00;;;;4956833;28;20191;-46
2023/01/07 00:15:26;;;;;;;1.90;1.80;;;16.20;67.50;17.00;100952.00;;;;4956455;28;20998;-46
2023/01/07 00:17:52;;;;;;;2.07;1.90;;;16.10;67.40;17.00;100937.00;;;;4988934;28;20259;-45
2023/01/07 00:20:17;;;;;;;1.87;1.77;;;16.10;67.40;17.00;100858.00;;;;4973146;28;20169;-46
2023/01/07 00:22:43;;;;;;;2.00;1.80;;;16.10;67.50;17.00;100947.00;;;;4972522;28;20668;-46
2023/01/07 00:25:09;;;;;;;2.03;1.83;;;16.10;67.40;17.00;100860.00;;;;4956992;28;20299;-45
2023/01/07 00:27:35;;;;;;;2.00;1.80;;;16.10;67.50;17.00;100948.00;;;;4972817;28;20179;-44
2023/01/07 00:30:00;;;;;;;1.60;1.50;;;16.10;68.40;17.00;100943.00;;;;4972708;28;20557;-46
2023/01/07 00:32:50;;;;;;;1.80;1.70;;;16.00;67.40;17.00;100938.00;;;;4987639;28;20185;-46
2023/01/07 00:35:21;;;;;;;1.60;1.50;;;16.00;67.50;17.00;100860.00;;;;4974630;28;20788;-45
2023/01/07 00:37:50;;;;;;;1.63;1.53;;;16.10;67.60;17.00;100949.00;;;;4973601;28;20167;-46
2023/01/07 00:40:16;;;;;;;1.70;1.60;;;16.10;67.60;17.00;100939.00;;;;4989696;28;20743;-45
2023/01/07 00:42:56;;;;;;;1.70;1.60;;;16.00;67.40;17.00;100940.00;;;;4955119;28;20292;-45
2023/01/07 00:45:23;;;;;;;1.93;1.70;;;16.00;67.50;17.00;100850.00;;;;4974086;28;20572;-46
2023/01/07 00:47:52;;;;;;;1.70;1.60;;;16.00;67.60;16.90;100848.00;;;;4972552;28;20660;-45
2023/01/07 00:50:22;;;;;;;1.63;1.53;;;16.00;67.60;16.90;100917.00;;;;4957189;28;20614;-46
2023/01/07 00:52:48;;;;;;;1.70;1.60;;;16.00;67.70;16.90;100915.00;;;;4972016;28;20165;-45
2023/01/07 00:55:14;;;;;;;1.87;1.77;;;16.00;67.70;16.90;100912.00;;;;4955768;28;20192;-47
2023/01/07 00:57:43;;;;;;;1.90;1.80;;;16.00;67.60;16.90;100918.00;;;;4988875;28;20164;-46
2023/01/07 01:00:11;;;;;;;1.87;1.73;;;16.00;67.80;16.90;100920.00;;;;4972198;28;20307;-45
2023/01/07 01:02:37;;;;;;;1.60;1.50;;;16.00;67.70;16.90;100828.00;;;;4955552;28;20188;-45
2023/01/07 01:05:03;;;;;;;1.73;1.63;;;16.00;67.70;16.90;100834.00;;;;4971746;28;20207;-45
2023/01/07 01:07:29;;;;;;;1.60;1.50;;;15.90;67.60;16.60;100907.00;;;;4988202;28;20534;-44
2023/01/07 01:09:54;;;;;;;1.50;1.40;;;15.90;67.60;16.70;100909.00;;;;4989464;28;20176;-45
2023/01/07 01:12:20;;;;;;;1.70;1.60;;;15.90;67.60;16.90;100905.00;;;;4970920;28;20171;-47
2023/01/07 01:14:46;;;;;;;1.50;1.40;;;15.90;67.70;16.90;100904.00;;;;4989374;28;20203;-47
2023/01/07 01:17:11;;;;;;;1.80;1.70;;;15.90;67.60;16.90;100835.00;;;;4991897;28;20262;-45
2023/01/07 01:19:37;;;;;;;1.53;1.40;;;15.90;67.60;16.90;100894.00;;;;4975473;28;20188;-46
2023/01/07 01:22:03;;;;;;;1.77;1.60;;;15.90;67.60;16.90;100902.00;;;;4975167;28;20176;-45
2023/01/07 01:24:29;;;;;;;2.10;1.70;;;15.90;67.60;16.90;100929.00;;;;4991607;28;20577;-44
2023/01/07 01:26:54;;;;;;;1.60;1.50;;;15.90;67.60;16.90;100897.00;;;;4975300;28;20182;-46
2023/01/07 01:29:20;;;;;;;1.60;1.50;;;15.90;67.70;16.90;100898.00;;;;4959727;28;20211;-45
2023/01/07 01:31:47;;;;;;;1.40;1.30;;;15.90;67.70;16.90;100826.00;;;;4992949;28;20192;-45
2023/01/07 01:34:13;;;;;;;1.40;1.30;;;15.90;67.60;16.90;100894.00;;;;4975664;28;20288;-44
2023/01/07 01:36:39;;;;;;;2.37;1.60;;;15.90;67.70;16.90;100887.00;;;;4975611;28;20258;-44
2023/01/07 01:39:04;;;;;;;1.57;1.47;;;15.90;67.60;16.90;100910.00;;;;4975611;28;20485;-45
2023/01/07 01:41:30;;;;;;;1.20;1.20;;;15.90;67.60;16.90;100819.00;;;;4959014;28;20222;-45
2023/01/07 01:43:56;;;;;;;1.50;1.40;;;15.90;67.60;16.90;100902.00;;;;4975045;28;20188;-44
2023/01/07 01:46:37;;;;;;;1.40;1.30;;;15.90;67.60;16.90;100905.00;;;;4958758;28;20653;-45
2023/01/07 01:49:18;;;;;;;1.30;1.20;;;15.80;68.40;16.90;100901.00;;;;4958749;28;20172;-45
2023/01/07 01:51:49;;;;;;;1.57;1.47;;;15.80;67.60;16.80;100904.00;;;;4976876;28;20184;-45
2023/01/07 01:54:15;;;;;;;1.40;1.30;;;15.80;67.60;16.80;100901.00;;;;4975462;28;20231;-45
2023/01/07 01:56:42;;;;;;;1.50;1.40;;;15.80;67.60;16.90;100901.00;;;;4995886;28;20848;-46
2023/01/07 01:59:13;;;;;;;1.53;1.30;;;15.80;67.60;16.80;100781.00;;;;4983423;28;20196;-45
2023/01/07 02:01:38;;;;;;;1.60;1.50;;;15.80;67.60;16.80;100897.00;;;;4982315;28;20512;-45
2023/01/07 02:04:07;;;;;;;1.40;1.30;;;15.80;67.50;16.80;100898.00;;;;4991660;28;20209;-45
2023/01/07 02:06:33;;;;;;;1.70;1.60;;;15.80;67.60;16.80;100898.00;;;;4979800;28;20191;-46
2023/01/07 02:08:59;;;;;;;1.43;1.33;;;15.80;67.50;16.80;100896.00;;;;4985004;28;20164;-46
2023/01/07 02:11:33;;;;;;;1.30;1.30;;;15.80;67.50;16.80;100889.00;;;;4983666;28;20164;-44
2023/01/07 02:14:36;;;;;;;1.90;1.40;;;15.80;67.60;16.80;100881.00;;;;4993212;28;20625;-46
2023/01/07 02:17:42;;;;;;;1.40;1.30;;;15.80;67.60;16.80;100878.00;;;;4994191;28;20172;-46
2023/01/07 02:20:43;;;;;;;1.13;1.13;;;15.80;67.60;16.80;100876.00;;;;4992289;28;20322;-45
2023/01/07 02:23:52;;;;;;;1.33;1.27;;;15.80;67.60;16.80;100886.00;;;;4976493;28;20191;-45
2023/01/07 02:27:00;;;;;;;1.40;1.30;;;15.70;67.50;16.80;100882.00;;;;4990596;28;20649;-45
2023/01/07 02:30:06;;;;;;;1.40;1.30;;;15.80;67.60;16.70;100871.00;;;;4976584;28;20175;-44
2023/01/07 02:32:47;;;;;;;1.57;1.30;;;15.80;67.60;16.70;100864.00;;;;4991588;28;20165;-45
2023/01/07 02:35:35;;;;;;;1.50;1.40;;;15.70;67.50;16.70;100873.00;;;;4975708;28;20235;-47
2023/01/07 02:38:29;;;;;;;1.50;1.40;;;15.70;67.60;16.70;100874.00;;;;4991671;28;20149;-45
2023/01/07 02:41:16;;;;;;;1.10;1.10;;;15.70;67.60;16.70;100874.00;;;;4993097;28;20184;-46
2023/01/07 02:44:06;;;;;;;1.00;1.00;;;15.70;67.50;16.70;100863.00;;;;4965761;28;20196;-44
2023/01/07 02:46:44;;;;;;;1.10;1.10;;;15.70;67.50;16.70;100878.00;;;;4962265;28;20305;-44
2023/01/07 02:49:14;;;;;;;1.20;1.20;;;15.80;67.60;16.70;100868.00;;;;4989940;28;20175;-46
2023/01/07 02:51:40;;;;;;;1.67;1.20;;;15.70;67.50;16.70;100860.00;;;;4974259;28;20181;-46
2023/01/07 02:54:10;;;;;;;1.23;1.23;;;15.70;67.40;16.70;100860.00;;;;4957983;28;20177;-45
2023/01/07 02:57:29;;;;;;;1.17;1.13;;;15.70;67.50;16.70;100870.00;;;;4990257;28;20232;-47
2023/01/07 03:00:25;;;;;;;1.10;1.10;;;15.70;67.50;16.70;100788.00;;;;4962748;28;20164;-45
2023/01/07 03:03:19;;;;;;;1.00;1.00;;;15.70;67.50;16.70;100860.00;;;;4989623;28;20160;-46
2023/01/07 03:06:16;;;;;;;1.20;1.20;;;15.70;67.60;16.70;100861.00;;;;4989732;28;20751;-46
2023/01/07 03:09:21;;;;;;;1.07;1.07;;;15.70;67.60;16.70;100856.00;;;;4989703;28;20250;-46
2023/01/07 03:12:16;;;;;;;1.07;0.97;;;15.70;68.30;16.70;100769.00;;;;4990855;28;20264;-45
2023/01/07 03:14:50;;;;;;;1.23;1.23;;;15.70;67.50;16.70;100846.00;;;;4990458;28;20201;-45
2023/01/07 03:17:26;;;;;;;0.77;0.77;;;15.70;67.50;16.70;100843.00;;;;4973670;28;20244;-46
2023/01/07 03:19:54;;;;;;;1.03;1.03;;;15.70;67.50;16.70;100851.00;;;;4989523;28;20184;-45
2023/01/07 03:22:21;;;;;;;1.80;1.20;;;15.70;67.50;16.70;100847.00;;;;4973413;28;20230;-45
2023/01/07 03:24:47;;;;;;;0.90;0.90;;;15.70;67.50;16.40;100837.00;;;;4989232;28;20215;-45
2023/01/07 03:27:13;;;;;;;1.00;1.00;;;15.70;67.50;16.70;100843.00;;;;4973253;28;20199;-46
2023/01/07 03:29:39;;;;;;;1.40;1.30;;;15.70;67.40;16.70;100844.00;;;;4957071;28;20213;-45
2023/01/07 03:32:14;;;;;;;1.20;1.10;;;15.70;67.40;16.70;100838.00;;;;4989572;28;20176;-45
2023/01/07 03:34:40;;;;;;;0.80;0.80;;;15.70;67.50;16.70;100834.00;;;;4961741;28;20628;-45
2023/01/07 03:37:11;;;;;;;1.10;1.10;;;15.70;67.50;16.70;100827.00;;;;4992456;28;20293;-46
2023/01/07 03:39:38;;;;;;;1.00;1.00;;;15.60;67.40;16.70;100825.00;;;;4976471;28;20204;-45
2023/01/07 03:44:50;;;;;;;0.77;0.77;;;15.70;67.50;16.70;100736.00;;;;4995013;28;20966;-47
2023/01/07 03:47:16;;;;;;;1.50;0.97;;;15.60;67.30;16.70;100838.00;;;;5008797;28;20168;-45
2023/01/07 03:49:42;;;;;;;1.07;1.07;;;15.70;67.50;16.70;100747.00;;;;4991817;28;20230;-46
2023/01/07 03:52:08;;;;;;;1.10;1.10;;;15.60;67.40;16.70;100817.00;;;;5007402;28;20222;-45
2023/01/07 03:54:33;;;;;;;0.90;0.90;;;15.60;67.50;16.70;100732.00;;;;4992857;28;20195;-45
2023/01/07 03:56:59;;;;;;;1.00;1.00;;;15.60;67.40;16.70;100810.00;;;;5010672;28;20267;-44
2023/01/07 03:59:25;;;;;;;1.10;1.10;;;15.60;67.50;16.70;100734.00;;;;4991804;28;20200;-45
2023/01/07 04:01:50;;;;;;;1.90;1.20;;;15.60;67.50;16.40;100808.00;;;;4991499;28;20178;-45
2023/01/07 04:04:16;;;;;;;1.00;1.00;;;15.60;67.50;16.70;100797.00;;;;4990679;28;20214;-45
2023/01/07 04:06:42;;;;;;;0.87;0.87;;;15.60;67.40;16.70;100758.00;;;;5008387;28;20171;-45
2023/01/07 04:09:08;;;;;;;1.20;1.10;;;15.60;67.50;16.70;100792.00;;;;4991834;28;20174;-46
2023/01/07 04:11:34;;;;;;;0.87;0.87;;;15.60;67.50;16.70;100713.00;;;;4991169;28;20171;-46
2023/01/07 04:13:59;;;;;;;1.20;1.20;;;15.60;67.40;16.70;100779.00;;;;4975179;28;20176;-45
2023/01/07 04:16:28;;;;;;;1.30;1.20;;;15.60;67.40;16.70;100775.00;;;;5008253;28;20171;-44
2023/01/07 04:18:54;;;;;;;1.23;1.17;;;15.60;67.40;16.70;100764.00;;;;4994485;28;20217;-44
2023/01/07 04:21:19;;;;;;;1.20;1.10;;;15.60;67.40;16.70;100769.00;;;;5027622;28;20207;-45
2023/01/07 04:23:45;;;;;;;0.90;0.90;;;15.60;67.40;16.70;100676.00;;;;5027214;28;20198;-46
2023/01/07 04:26:11;;;;;;;3.37;1.13;;;15.60;67.40;16.70;100768.00;;;;5027374;28;21008;-44
2023/01/07 04:28:37;;;;;;;7.90;1.60;;;15.60;68.10;16.70;100764.00;;;;5025782;28;20174;-44
2023/01/07 04:31:02;;;;;;;3.90;1.30;;;15.70;69.00;16.60;100673.00;;;;5009390;28;20205;-44
2023/01/07 04:33:28;;;;;;;1.67;1.27;;;15.70;68.40;16.60;100758.00;;;;5026213;28;20583;-43
2023/01/07 04:35:54;;;;;;;1.27;1.17;;;15.60;67.90;16.60;100756.00;;;;5027361;28;20573;-43
2023/01/07 04:38:20;;;;;;;1.33;1.23;;;15.60;67.80;16.60;100760.00;;;;5026704;28;20541;-47
2023/01/07 04:40:46;;;;;;;1.00;1.00;;;15.60;67.70;16.50;100680.00;;;;5028552;28;20167;-45
2023/01/07 04:43:11;;;;;;;1.57;1.47;;;15.40;67.60;16.50;100755.00;;;;5010385;28;20190;-44
2023/01/07 04:45:37;;;;;;;1.37;1.30;;;15.40;67.80;16.40;100751.00;;;;5029859;28;20187;-43
2023/01/07 04:48:03;;;;;;;2.27;1.60;;;15.30;67.80;16.40;100746.00;;;;5034651;28;20177;-43
2023/01/07 04:50:29;;;;;;;1.50;1.40;;;15.20;67.70;16.40;100756.00;;;;5034562;28;20182;-44
2023/01/07 04:52:54;;;;;;;1.50;1.40;;;15.30;67.60;16.10;100709.00;;;;5033385;28;20166;-44
2023/01/07 04:55:20;;;;;;;2.30;1.63;;;15.20;67.30;16.40;100739.00;;;;5017320;28;20293;-42
2023/01/07 04:57:46;;;;;;;2.30;1.60;;;15.30;67.40;16.40;100726.00;;;;5017400;28;20206;-44
2023/01/07 05:00:12;;;;;;;1.50;1.40;;;15.40;67.30;16.40;100725.00;;;;5034087;28;20171;-46
2023/01/07 05:02:38;;;;;;;1.63;1.53;;;15.50;67.30;16.50;100656.00;;;;5033671;28;20198;-46
2023/01/07 05:05:04;;;;;;;1.60;1.50;;;15.60;67.00;16.50;100726.00;;;;5033863;28;20237;-45
2023/01/07 05:07:30;;;;;;;1.60;1.50;;;15.60;66.80;16.60;100726.00;;;;5001113;28;20201;-45
2023/01/07 05:09:55;;;;;;;1.50;1.20;;;15.60;66.60;16.60;100641.00;;;;5034242;28;20266;-44
2023/01/07 05:12:21;;;;;;;1.83;1.50;;;15.70;66.60;16.60;100681.00;;;;4986080;28;20176;-44
2023/01/07 05:14:47;;;;;;;1.47;1.37;;;15.70;66.40;16.70;100718.00;;;;5011300;28;20544;-44
2023/01/07 05:17:12;;;;;;;4.70;1.50;;;15.70;66.40;16.70;100721.00;;;;4994462;28;20255;-47
2023/01/07 05:19:38;;;;;;;1.77;1.50;;;15.70;66.80;16.70;100615.00;;;;4995014;28;20189;-45
2023/01/07 05:22:04;;;;;;;2.70;1.53;;;15.80;66.60;16.70;100717.00;;;;5010893;28;20172;-48
2023/01/07 05:24:30;;;;;;;2.13;1.50;;;15.90;66.70;16.80;100721.00;;;;4994253;28;20836;-44
2023/01/07 05:26:55;;;;;;;2.73;1.50;;;16.00;66.40;16.80;100637.00;;;;5010860;28;20696;-45
2023/01/07 05:29:21;;;;;;;3.90;1.60;;;16.00;66.50;16.80;100705.00;;;;5011002;28;20172;-44
2023/01/07 05:31:47;;;;;;;4.70;1.50;;;16.00;66.60;16.60;100709.00;;;;5011540;28;20275;-46
2023/01/07 05:34:13;;;;;;;1.30;1.20;;;16.00;66.60;16.90;100618.00;;;;4995901;28;20192;-46
2023/01/07 05:36:38;;;;;;;4.23;1.43;;;16.00;66.90;16.90;100692.00;;;;5011358;28;20177;-46
2023/01/07 05:39:04;;;;;;;1.60;1.50;;;16.00;67.10;16.90;100617.00;;;;5010356;28;20193;-42
2023/01/07 05:41:30;;;;;;;1.37;1.27;;;16.10;67.30;17.00;100698.00;;;;5010176;28;20180;-44
2023/01/07 05:43:56;;;;;;;1.73;1.37;;;16.10;67.50;17.00;100687.00;;;;4994126;28;20196;-44
2023/01/07 05:46:21;;;;;;;3.67;1.40;;;16.10;67.70;17.00;100698.00;;;;4994198;28;20173;-45
2023/01/07 05:48:47;;;;;;;3.93;1.60;;;16.10;68.60;17.00;100690.00;;;;5010676;28;20663;-45
2023/01/07 05:51:13;;;;;;;3.27;1.50;;;16.10;67.80;17.00;100690.00;;;;4995434;28;20633;-43
2023/01/07 05:53:38;;;;;;;3.10;1.40;;;16.00;67.70;17.00;100688.00;;;;4978207;28;20180;-44
2023/01/07 05:56:04;;;;;;;2.27;1.60;;;16.10;67.80;17.00;100693.00;;;;4977911;28;20200;-43
2023/01/07 05:58:30;;;;;;;2.30;1.40;;;16.00;67.70;16.70;100599.00;;;;4978665;28;20232;-45
2023/01/07 06:00:56;;;;;;;2.37;1.40;;;16.00;67.40;16.90;100681.00;;;;4999609;28;20178;-47
2023/01/07 06:03:22;;;;;;;5.87;1.70;;;15.90;67.40;16.90;100690.00;;;;4991869;28;20184;-44
2023/01/07 06:05:48;;;;;;;1.50;1.40;;;15.80;67.20;16.50;100676.00;;;;4991163;28;20192;-45
2023/01/07 06:08:14;;;;;;;1.57;1.47;;;15.70;66.80;16.70;100681.00;;;;4975284;28;20183;-45
2023/01/07 06:10:40;;;;;;;1.70;1.60;;;15.60;66.70;16.70;100671.00;;;;4991597;28;20226;-45
2023/01/07 06:13:06;;;;;;;2.13;1.70;;;15.50;66.90;16.70;100596.00;;;;4990800;28;20211;-44
2023/01/07 06:15:31;;;;;;;1.50;1.40;;;15.40;66.60;16.60;100616.00;;;;4990559;28;20600;-44
2023/01/07 06:17:57;;;;;;;1.87;1.70;;;15.40;66.80;16.60;100663.00;;;;4998896;28;20187;-44
2023/01/07 06:20:23;;;;;;;1.67;1.40;;;15.50;66.80;16.60;100573.00;;;;4999999;28;20169;-45
2023/01/07 06:22:49;;;;;;;4.77;1.60;;;15.60;66.70;16.70;100670.00;;;;4997320;28;20207;-46
2023/01/07 06:25:15;;;;;;;2.13;1.50;;;15.60;66.40;16.70;100659.00;;;;4990689;28;20227;-46
2023/01/07 06:27:41;;;;;;;1.60;1.37;;;15.70;66.30;16.70;100661.00;;;;4976529;28;20168;-45
2023/01/07 06:30:08;;;;;;;2.20;1.40;;;15.80;66.30;16.70;100661.00;;;;4994827;28;20259;-43
2023/01/07 06:32:41;;;;;;;1.50;1.40;;;15.80;66.20;16.70;100656.00;;;;4974520;28;20172;-44
2023/01/07 06:35:08;;;;;;;2.63;1.57;;;15.80;66.30;16.80;100658.00;;;;4974156;28;20278;-46
2023/01/07 06:37:34;;;;;;;2.10;1.50;;;15.80;66.30;16.80;100563.00;;;;4974529;28;20160;-44
2023/01/07 06:40:00;;;;;;;1.50;1.40;;;15.80;66.30;16.80;100654.00;;;;4991052;28;20708;-44
2023/01/07 06:42:25;;;;;;;1.30;1.20;;;15.80;66.30;16.80;100670.00;;;;4989801;28;20259;-44
2023/01/07 06:44:51;;;;;;;2.03;1.60;;;15.80;66.30;16.80;100587.00;;;;4990379;28;20224;-44
2023/01/07 06:47:17;;;;;;;2.23;1.60;;;15.80;66.40;16.80;100572.00;;;;4990684;28;20231;-44
2023/01/07 06:49:42;;;;;;;3.43;1.77;;;15.80;66.40;16.80;100659.00;;;;4990272;28;20187;-45
2023/01/07 06:52:08;;;;;;;2.10;1.40;;;15.80;66.30;16.80;100602.00;;;;4973506;28;20293;-45
2023/01/07 06:54:34;;;;;;;2.00;1.40;;;15.80;66.30;16.80;100649.00;;;;4989809;28;20291;-44
2023/01/07 06:57:00;;;;;;;2.37;1.43;;;15.80;66.40;16.80;100564.00;;;;4992581;28;20180;-45
2023/01/07 06:59:25;;;;;;;2.13;1.20;;;15.80;66.40;16.80;100559.00;;;;4994668;28;20638;-44
2023/01/07 07:01:51;;;;;;;1.60;1.50;;;15.80;66.40;16.80;100634.00;;;;4990303;28;20176;-44
2023/01/07 07:04:17;;;;;;;1.47;1.37;;;15.80;66.40;16.70;100654.00;;;;4990078;28;20215;-44
2023/01/07 07:06:43;;;;;;;1.40;1.30;;;15.80;66.30;16.70;100554.00;;;;4974651;28;20386;-45
2023/01/07 07:09:08;;;;;;;1.50;1.37;;;15.80;66.20;16.70;100643.00;;;;4990130;28;20179;-43
2023/01/07 07:11:34;;;;;;;1.30;1.20;;;15.80;66.20;16.70;100637.00;;;;4990651;28;20268;-45
2023/01/07 07:14:00;;;;;;;2.33;1.30;;;15.80;66.20;16.70;100551.00;;;;4989348;28;20176;-46
2023/01/07 07:16:26;;;;;;;2.93;1.30;;;15.80;66.30;16.70;100644.00;;;;4990043;28;20242;-46
2023/01/07 07:18:52;;;;;;;1.30;1.30;;;15.90;66.30;16.70;100648.00;;;;4990010;28;20184;-45
2023/01/07 07:21:18;;;;;;;1.60;1.50;;;15.80;66.20;16.70;100645.00;;;;4989491;28;20172;-45
2023/01/07 07:23:44;;;;;;;1.50;1.40;;;15.80;66.10;16.70;100565.00;;;;4989539;28;20737;-44
2023/01/07 07:26:09;;;;;;;1.47;1.37;;;15.80;66.10;16.70;100639.00;;;;4989274;28;20669;-44
2023/01/07 07:28:35;;;;;;;1.47;1.37;;;15.80;66.10;16.70;100637.00;;;;4990020;28;20242;-45
2023/01/07 07:31:01;;;;;;;1.23;1.23;;;15.80;66.00;16.70;100616.00;;;;4974462;28;20172;-46
2023/01/07 07:33:27;;;;;;;1.40;1.30;;;15.80;66.10;16.70;100638.00;;;;4975500;28;20183;-47
2023/01/07 07:35:53;;;;;;;1.63;1.23;;;15.80;66.20;16.70;100637.00;;;;4976044;28;20759;-44
2023/01/07 07:38:19;;;;;;;1.03;1.03;;;15.80;66.10;16.70;100553.00;;;;4996526;28;20168;-48
2023/01/07 07:40:46;;;;;;;1.67;1.57;;;15.80;66.00;16.70;100620.00;;;;4991716;28;20309;-44
2023/01/07 07:43:12;;;;;;;2.27;1.40;;;15.80;66.10;16.70;100543.00;;;;4990360;28;20643;-45
2023/01/07 07:45:39;;;;;;;1.03;1.03;;;15.90;66.20;16.70;100637.00;;;;4989422;28;20184;-44
2023/01/07 07:48:06;;;;;;;1.23;1.23;;;15.80;66.00;16.60;100633.00;;;;4989158;28;20227;-45
2023/01/07 07:50:32;;;;;;;1.13;1.13;;;15.70;66.00;16.70;100530.00;;;;4989732;28;20187;-45
2023/01/07 07:52:58;;;;;;;1.17;1.17;;;15.80;65.90;16.70;100538.00;;;;4988869;28;20696;-46
2023/01/07 07:55:23;;;;;;;1.40;1.30;;;15.70;65.80;16.60;100554.00;;;;4989342;28;20239;-44
2023/01/07 07:57:52;;;;;;;1.30;1.20;;;15.80;66.00;16.60;100542.00;;;;4989364;28;20220;-44
2023/01/07 08:00:18;;;;;;;1.40;1.30;;;15.70;66.00;16.60;100524.00;;;;4989730;28;20235;-45
2023/01/07 08:02:43;;;;;;;1.27;1.27;;;15.70;65.90;16.60;100608.00;;;;4988480;28;20551;-44
2023/01/07 08:05:11;;;;;;;2.03;1.30;;;15.70;65.90;16.30;100508.00;;;;4988914;28;20705;-46
2023/01/07 08:07:38;;;;;;;1.20;1.20;;;15.80;66.00;16.60;100608.00;;;;4973139;28;20172;-44
2023/01/07 08:10:05;;;;;;;1.40;1.30;;;15.70;66.80;16.60;100598.00;;;;4989093;28;20638;-45
2023/01/07 08:12:31;;;;;;;2.10;1.30;;;15.70;66.00;16.60;100511.00;;;;4998460;28;20187;-44
2023/01/07 08:14:57;;;;;;;1.63;1.30;;;15.80;66.10;16.30;100592.00;;;;4964099;28;20208;-44
2023/01/07 08:17:22;;;;;;;1.93;1.23;;;15.80;66.20;16.60;100601.00;;;;4988988;28;20625;-43
2023/01/07 08:19:48;;;;;;;2.30;1.53;;;15.80;66.40;16.40;100472.00;;;;4989204;28;20188;-44
2023/01/07 08:22:14;;;;;;;5.10;1.40;;;15.80;66.60;16.40;100595.00;;;;4987828;28;20188;-44
2023/01/07 08:24:39;;;;;;;2.27;1.37;;;15.80;67.10;16.70;100509.00;;;;4987398;28;20208;-44
2023/01/07 08:27:05;;;;;;;3.13;1.70;;;15.90;67.00;16.70;100583.00;;;;4988727;28;20191;-44
2023/01/07 08:29:31;;;;;;;2.13;1.30;;;16.00;66.90;16.80;100508.00;;;;4988951;28;20191;-44
2023/01/07 08:31:57;;;;;;;1.60;1.50;;;16.00;66.60;16.80;100519.00;;;;4988682;28;20961;-45
2023/01/07 08:34:23;;;;;;;1.57;1.40;;;16.10;66.50;16.90;100593.00;;;;4988053;28;20191;-45
2023/01/07 08:36:48;;;;;;;1.83;1.33;;;16.30;66.30;17.00;100507.00;;;;4989681;28;20180;-46
2023/01/07 08:39:14;;;;;;;2.03;1.40;;;16.40;66.00;17.10;100499.00;;;;4972160;28;20184;-43
2023/01/07 08:41:40;;;;;;;0.83;0.83;;;16.50;65.70;17.20;100573.00;;;;4986914;28;20216;-45
2023/01/07 08:44:06;;;;;;;2.83;1.30;;;16.70;65.80;16.80;100496.00;;;;4987491;28;20189;-43
2023/01/07 08:46:31;;;;;;;2.33;1.30;;;16.80;65.90;17.30;100578.00;;;;4988019;28;20290;-43
2023/01/07 08:48:57;;;;;;;4.63;1.47;;;16.90;65.80;17.40;100487.00;;;;5001434;28;20191;-44
2023/01/07 08:51:23;;;;;;;2.97;1.20;;;17.00;65.50;17.50;100488.00;;;;5010247;28;20179;-44
2023/01/07 08:53:48;;;;;;;1.30;1.20;;;17.10;65.70;17.60;100573.00;;;;5011678;28;20533;-44
2023/01/07 08:56:14;;;;;;;2.80;1.37;;;17.20;66.20;17.70;100579.00;;;;5010901;28;20677;-44
2023/01/07 08:58:40;;;;;;;1.63;1.20;;;17.30;66.40;17.70;100560.00;;;;5017338;28;20222;-45
2023/01/07 09:01:06;;;;;;;1.57;1.07;;;17.30;66.00;17.70;100560.00;;;;4998630;28;20183;-43
2023/01/07 09:03:33;;;;;;;5.93;1.70;;;17.30;66.20;17.80;100560.00;;;;4990704;28;20647;-44
2023/01/07 09:05:58;;;;;;;5.70;1.40;;;17.20;66.40;17.80;100560.00;;;;5007902;28;20189;-42
2023/01/07 09:08:24;;;;;;;4.23;1.53;;;17.20;66.90;17.80;100552.00;;;;5007794;28;20232;-44
2023/01/07 09:10:50;;;;;;;3.33;1.43;;;17.20;66.70;17.90;100578.00;;;;5007918;28;20171;-44
2023/01/07 09:13:16;;;;;;;4.90;1.47;;;17.30;66.60;17.60;100574.00;;;;4974740;28;20192;-45
2023/01/07 09:15:41;;;;;;;6.63;1.63;;;17.30;66.40;17.90;100551.00;;;;5007847;28;20193;-45
2023/01/07 09:18:07;;;;;;;2.60;1.43;;;17.30;66.60;17.90;100553.00;;;;5006430;28;20179;-44
2023/01/07 09:20:33;;;;;;;7.13;1.57;;;17.30;67.00;18.00;100544.00;;;;5008108;28;20639;-44
2023/01/07 09:22:59;;;;;;;3.63;1.40;;;17.40;67.80;18.00;100544.00;;;;5007688;28;20259;-43
2023/01/07 09:25:24;;;;;;;1.70;1.50;;;17.40;68.40;18.00;100540.00;;;;5008012;28;20212;-44
2023/01/07 09:27:50;;;;;;;1.57;1.47;;;17.40;69.20;18.00;100533.00;;;;5008917;28;20210;-44
2023/01/07 09:30:16;;;;;;;3.77;1.53;;;17.40;69.30;18.00;100530.00;;;;5008030;28;20769;-45
2023/01/07 09:32:42;;;;;;;2.80;1.50;;;17.30;69.00;18.00;100459.00;;;;5008570;28;20172;-44
2023/01/07 09:35:09;;;;;;;2.03;1.50;;;17.30;68.70;18.00;100443.00;;;;5007857;28;20191;-45
2023/01/07 09:37:35;;;;;;;3.33;1.60;;;17.30;68.60;18.00;100515.00;;;;4994220;28;20179;-43
2023/01/07 09:40:00;;;;;;;2.43;1.47;;;17.20;68.40;18.00;100530.00;;;;5011512;28;20548;-45
2023/01/07 09:42:51;;;;;;;2.00;1.20;;;17.30;68.40;18.00;100518.00;;;;5012402;28;20183;-44
2023/01/07 09:45:30;;;;;;;5.87;1.50;;;17.20;68.40;18.00;100518.00;;;;4994989;28;20214;-43
2023/01/07 09:47:58;;;;;;;2.57;1.50;;;17.20;68.30;18.00;100521.00;;;;5011384;28;20173;-43
2023/01/07 09:50:30;;;;;;;2.97;1.70;;;17.20;68.30;18.00;100510.00;;;;4995512;28;21013;-46
2023/01/07 09:52:59;;;;;;;1.80;1.50;;;17.20;68.30;18.00;100470.00;;;;5012700;28;20171;-45
2023/01/07 09:55:35;;;;;;;1.53;1.37;;;17.20;68.20;18.00;100526.00;;;;5011845;28;20203;-44
2023/01/07 09:58:01;;;;;;;1.77;1.40;;;17.20;68.20;18.00;100520.00;;;;5011807;28;20196;-44
2023/01/07 10:00:26;;;;;;;3.73;1.40;;;17.20;68.20;18.00;100447.00;;;;5011087;28;20883;-43
2023/01/07 10:03:28;;;;;;;4.13;1.60;;;17.10;68.10;17.90;100514.00;;;;5010879;28;20256;-44
2023/01/07 10:06:10;;;;;;;2.80;1.40;;;17.10;68.00;17.90;100505.00;;;;4993218;28;20311;-45
2023/01/07 10:08:54;;;;;;;3.33;1.60;;;17.10;68.10;17.90;100431.00;;;;5011300;28;20140;-44
2023/01/07 10:11:54;;;;;;;3.73;1.40;;;17.10;68.00;17.90;100500.00;;;;5014346;28;20250;-44
2023/01/07 10:14:48;;;;;;;2.13;1.53;;;17.10;68.00;17.90;100497.00;;;;5012940;28;20197;-43
2023/01/07 10:17:33;;;;;;;3.13;1.50;;;17.10;68.10;17.90;100492.00;;;;4995537;28;20253;-43
2023/01/07 10:20:25;;;;;;;4.33;1.50;;;17.10;68.10;17.60;100419.00;;;;4995114;28;20193;-45
2023/01/07 10:23:03;;;;;;;4.83;1.67;;;17.00;68.00;17.90;100402.00;;;;5011244;28;20186;-45
2023/01/07 10:25:33;;;;;;;3.17;1.53;;;17.00;68.00;17.80;100403.00;;;;5011253;28;20278;-44
2023/01/07 10:28:03;;;;;;;1.50;1.40;;;17.00;68.00;17.80;100489.00;;;;5015364;28;20199;-44
2023/01/07 10:30:30;;;;;;;3.87;1.43;;;17.00;68.10;17.80;100398.00;;;;5019029;28;20169;-44
2023/01/07 10:33:18;;;;;;;3.67;1.50;;;17.00;68.00;17.80;100474.00;;;;5002600;28;20203;-43
2023/01/07 10:35:48;;;;;;;3.47;1.50;;;17.00;68.10;17.80;100472.00;;;;5012923;28;20191;-44
2023/01/07 10:38:19;;;;;;;2.27;1.50;;;17.00;68.10;17.80;100469.00;;;;4995435;28;20735;-44
2023/01/07 10:40:56;;;;;;;2.67;1.53;;;16.90;68.00;17.80;100451.00;;;;5010708;28;20251;-45
2023/01/07 10:44:26;;;;;;;3.73;1.60;;;17.00;68.10;17.80;100461.00;;;;5010197;28;20158;-45
2023/01/07 10:47:10;;;;;;;5.53;1.60;;;16.90;68.00;17.80;100440.00;;;;4994082;28;20169;-43
2023/01/07 10:49:56;;;;;;;9.63;1.70;;;16.90;68.20;17.80;100446.00;;;;5010384;28;20712;-44
2023/01/07 10:52:36;;;;;;;10.33;1.93;;;17.00;68.70;17.80;100434.00;;;;5010463;28;20157;-45
2023/01/07 10:55:24;;;;;;;9.30;1.73;;;17.00;69.20;17.80;100424.00;;;;5011561;28;20255;-44
2023/01/07 10:57:50;;;;;;;10.93;2.10;;;17.00;68.90;17.80;100420.00;;;;4994444;28;20179;-43
2023/01/07 11:00:16;;;;;;;8.60;2.13;;;16.90;68.70;17.80;100406.00;;;;5010494;28;20198;-44
2023/01/07 11:02:51;;;;;;;9.87;2.30;;;16.90;68.80;17.80;100415.00;;;;5010191;28;20172;-44